createdAt,value
2022-09-01T00:00:13.155Z,52.20
2022-09-01T00:01:13.077Z,52.00
2022-09-01T00:02:13.187Z,52.40
2022-09-01T00:03:13.436Z,52.40
2022-09-01T00:04:13.744Z,52.30
2022-09-01T00:05:13.702Z,52.40
2022-09-01T00:06:13.505Z,52.40
2022-09-01T00:07:13.342Z,52.10
2022-09-01T00:08:13.164Z,52.00
2022-09-01T00:09:13.384Z,52.40
2022-09-01T00:10:13.239Z,51.70
2022-09-01T00:11:14.784Z,51.50
2022-09-01T00:12:13.653Z,51.80
2022-09-01T00:13:13.906Z,51.70
2022-09-01T00:14:30.084Z,51.50
2022-09-01T00:15:13.252Z,52.00
2022-09-01T00:16:13.541Z,52.10
2022-09-01T00:17:13.741Z,52.20
2022-09-01T00:18:14.070Z,51.80
2022-09-01T00:19:13.133Z,51.80
2022-09-01T00:20:16.988Z,51.90
2022-09-01T00:21:13.799Z,51.50
2022-09-01T00:22:13.751Z,51.50
2022-09-01T00:23:13.609Z,51.50
2022-09-01T00:24:13.921Z,51.30
2022-09-01T00:25:13.218Z,51.40
2022-09-01T00:26:13.014Z,51.60
2022-09-01T00:27:13.030Z,51.80
2022-09-01T00:28:13.227Z,51.70
2022-09-01T00:29:13.450Z,51.90
2022-09-01T00:30:14.955Z,52.00
2022-09-01T00:31:13.009Z,51.90
2022-09-01T00:32:12.976Z,51.90
2022-09-01T00:33:13.048Z,52.00
2022-09-01T00:34:13.810Z,52.30
2022-09-01T00:35:13.856Z,52.20
2022-09-01T00:36:13.754Z,52.50
2022-09-01T00:37:13.796Z,52.30
2022-09-01T00:38:13.781Z,52.50
2022-09-01T00:39:13.983Z,52.30
2022-09-01T00:40:12.975Z,52.10
2022-09-01T00:41:13.381Z,51.90
2022-09-01T00:42:13.786Z,52.30
2022-09-01T00:43:14.144Z,52.40
2022-09-01T00:44:13.326Z,52.30
2022-09-01T00:45:13.506Z,52.20
2022-09-01T00:46:13.898Z,52.20
2022-09-01T00:47:13.252Z,52.40
2022-09-01T00:48:14.001Z,52.50
2022-09-01T00:49:13.251Z,52.10
2022-09-01T00:50:13.345Z,52.10
2022-09-01T00:51:13.651Z,52.10
2022-09-01T00:52:13.655Z,52.10
2022-09-01T00:53:13.870Z,52.40
2022-09-01T00:54:13.617Z,52.60
2022-09-01T00:55:13.733Z,52.80
2022-09-01T00:56:13.861Z,52.90
2022-09-01T00:57:14.041Z,52.50
2022-09-01T00:58:19.519Z,52.50
2022-09-01T00:59:14.317Z,52.60
2022-09-01T01:00:13.449Z,52.60
2022-09-01T01:01:13.807Z,52.60
2022-09-01T01:02:14.242Z,52.70
2022-09-01T01:03:13.582Z,52.90
2022-09-01T01:04:15.146Z,53.20
2022-09-01T01:05:14.370Z,52.90
2022-09-01T01:06:13.489Z,53.00
2022-09-01T01:07:13.379Z,52.90
2022-09-01T01:08:13.499Z,52.90
2022-09-01T01:09:13.397Z,53.00
2022-09-01T01:10:13.431Z,52.80
2022-09-01T01:11:13.372Z,52.90
2022-09-01T01:12:13.353Z,52.80
2022-09-01T01:13:14.433Z,53.00
2022-09-01T01:14:13.152Z,53.00
2022-09-01T01:15:13.356Z,53.40
2022-09-01T01:16:13.682Z,53.70
2022-09-01T01:17:13.577Z,53.70
2022-09-01T01:18:13.788Z,53.70
2022-09-01T01:19:13.817Z,53.90
2022-09-01T01:20:13.889Z,53.80
2022-09-01T01:21:14.036Z,53.80
2022-09-01T01:22:13.121Z,53.90
2022-09-01T01:23:14.211Z,54.20
2022-09-01T01:24:13.201Z,54.40
2022-09-01T01:25:14.827Z,54.60
2022-09-01T01:26:16.416Z,54.70
2022-09-01T01:27:13.278Z,54.60
2022-09-01T01:28:13.523Z,54.90
2022-09-01T01:29:13.425Z,54.90
2022-09-01T01:30:13.296Z,55.20
2022-09-01T01:31:13.345Z,55.30
2022-09-01T01:32:13.721Z,55.30
2022-09-01T01:33:13.694Z,55.50
2022-09-01T01:34:13.710Z,55.40
2022-09-01T01:35:13.789Z,55.70
2022-09-01T01:36:13.846Z,56.00
2022-09-01T01:37:13.824Z,56.10
2022-09-01T01:38:14.127Z,56.30
2022-09-01T01:39:13.048Z,56.20
2022-09-01T01:40:13.051Z,56.00
2022-09-01T01:41:13.088Z,56.40
2022-09-01T01:42:13.343Z,56.50
2022-09-01T01:43:13.289Z,56.40
2022-09-01T01:44:13.674Z,56.60
2022-09-01T01:45:13.697Z,56.80
2022-09-01T01:46:13.750Z,56.60
2022-09-01T01:47:13.652Z,57.00
2022-09-01T01:48:14.032Z,57.20
2022-09-01T01:49:12.923Z,57.20
2022-09-01T01:50:13.686Z,57.40
2022-09-01T01:51:13.548Z,57.80
2022-09-01T01:52:13.480Z,57.70
2022-09-01T01:53:13.512Z,57.60
2022-09-01T01:54:13.374Z,58.20
2022-09-01T01:55:13.201Z,58.20
2022-09-01T01:56:13.068Z,57.90
2022-09-01T01:57:12.901Z,58.00
2022-09-01T01:58:12.858Z,58.30
2022-09-01T01:59:13.763Z,58.30
2022-09-01T02:00:13.914Z,58.20
2022-09-01T02:01:12.862Z,58.10
2022-09-01T02:02:13.084Z,58.30
2022-09-01T02:03:13.075Z,58.60
2022-09-01T02:04:12.976Z,58.60
2022-09-01T02:05:13.170Z,58.40
2022-09-01T02:06:13.056Z,58.40
2022-09-01T02:07:13.008Z,58.80
2022-09-01T02:08:13.294Z,58.90
2022-09-01T02:09:13.259Z,58.60
2022-09-01T02:10:13.123Z,59.20
2022-09-01T02:11:13.231Z,59.30
2022-09-01T02:12:14.972Z,59.30
2022-09-01T02:13:12.848Z,59.10
2022-09-01T02:14:13.802Z,59.50
2022-09-01T02:15:13.765Z,59.80
2022-09-01T02:16:13.813Z,59.20
2022-09-01T02:17:13.923Z,59.40
2022-09-01T02:18:13.243Z,60.10
2022-09-01T02:19:13.095Z,60.20
2022-09-01T02:20:13.872Z,60.10
2022-09-01T02:21:18.120Z,60.40
2022-09-01T02:22:13.676Z,60.80
2022-09-01T02:23:13.600Z,61.00
2022-09-01T02:24:13.606Z,60.90
2022-09-01T02:25:13.837Z,60.70
2022-09-01T02:26:17.012Z,60.60
2022-09-01T02:27:13.310Z,60.30
2022-09-01T02:28:13.659Z,60.90
2022-09-01T02:29:13.598Z,60.90
2022-09-01T02:30:13.462Z,61.10
2022-09-01T02:31:13.727Z,61.20
2022-09-01T02:32:14.043Z,60.90
2022-09-01T02:33:12.867Z,61.10
2022-09-01T02:34:13.881Z,61.20
2022-09-01T02:35:12.679Z,61.60
2022-09-01T02:36:13.680Z,61.50
2022-09-01T02:37:13.507Z,61.40
2022-09-01T02:38:13.413Z,61.00
2022-09-01T02:39:13.482Z,61.30
2022-09-01T02:40:13.578Z,61.40
2022-09-01T02:41:13.478Z,61.50
2022-09-01T02:42:13.587Z,61.30
2022-09-01T02:43:14.007Z,61.80
2022-09-01T02:44:13.108Z,62.00
2022-09-01T02:45:13.253Z,61.90
2022-09-01T02:46:13.745Z,61.90
2022-09-01T02:47:14.106Z,62.30
2022-09-01T02:48:13.588Z,62.20
2022-09-01T02:49:13.798Z,62.30
2022-09-01T02:50:13.648Z,61.70
2022-09-01T02:51:13.488Z,62.10
2022-09-01T02:52:13.390Z,62.20
2022-09-01T02:53:13.614Z,62.30
2022-09-01T02:54:13.670Z,62.50
2022-09-01T02:55:13.546Z,62.50
2022-09-01T02:56:13.542Z,62.60
2022-09-01T02:57:13.509Z,62.60
2022-09-01T02:58:13.450Z,62.80
2022-09-01T02:59:13.503Z,62.90
2022-09-01T03:00:13.620Z,63.00
2022-09-01T03:01:14.042Z,62.70
2022-09-01T03:02:13.430Z,62.70
2022-09-01T03:03:13.248Z,62.70
2022-09-01T03:04:13.083Z,62.30
2022-09-01T03:05:13.028Z,62.30
2022-09-01T03:06:12.985Z,62.90
2022-09-01T03:07:12.807Z,62.80
2022-09-01T03:08:13.806Z,63.00
2022-09-01T03:09:13.592Z,62.90
2022-09-01T03:10:13.371Z,63.10
2022-09-01T03:11:13.525Z,62.90
2022-09-01T03:12:13.689Z,63.00
2022-09-01T03:13:13.837Z,63.00
2022-09-01T03:14:13.727Z,62.60
2022-09-01T03:15:13.922Z,62.90
2022-09-01T03:16:13.290Z,62.90
2022-09-01T03:17:13.674Z,62.90
2022-09-01T03:18:13.867Z,62.90
2022-09-01T03:19:13.842Z,62.80
2022-09-01T03:20:13.909Z,62.90
2022-09-01T03:21:13.019Z,62.80
2022-09-01T03:22:13.006Z,62.50
2022-09-01T03:23:12.980Z,62.30
2022-09-01T03:24:12.839Z,62.40
2022-09-01T03:25:13.718Z,62.20
2022-09-01T03:26:13.577Z,62.70
2022-09-01T03:27:13.533Z,62.90
2022-09-01T03:28:13.402Z,62.20
2022-09-01T03:29:13.663Z,62.50
2022-09-01T03:30:13.740Z,62.30
2022-09-01T03:31:13.939Z,62.00
2022-09-01T03:32:13.342Z,62.20
2022-09-01T03:33:13.551Z,62.00
2022-09-01T03:34:13.876Z,62.40
2022-09-01T03:35:14.040Z,62.40
2022-09-01T03:36:15.048Z,61.80
2022-09-01T03:37:13.399Z,61.60
2022-09-01T03:38:13.320Z,61.70
2022-09-01T03:39:16.619Z,61.50
2022-09-01T03:40:13.070Z,61.20
2022-09-01T03:41:13.410Z,61.50
2022-09-01T03:42:13.492Z,61.20
2022-09-01T03:43:13.597Z,61.10
2022-09-01T03:44:13.466Z,60.90
2022-09-01T03:45:13.759Z,60.60
2022-09-01T03:46:13.815Z,60.70
2022-09-01T03:47:14.187Z,61.00
2022-09-01T03:48:13.392Z,61.30
2022-09-01T03:49:13.405Z,61.30
2022-09-01T03:50:13.342Z,61.20
2022-09-01T03:51:13.332Z,61.10
2022-09-01T03:52:13.532Z,61.20
2022-09-01T03:53:13.433Z,61.50
2022-09-01T03:54:13.317Z,61.20
2022-09-01T03:55:13.242Z,61.30
2022-09-01T03:56:13.213Z,61.50
2022-09-01T03:57:13.944Z,61.70
2022-09-01T03:58:13.465Z,61.50
2022-09-01T03:59:14.028Z,61.30
2022-09-01T04:00:13.183Z,61.20
2022-09-01T04:01:13.716Z,61.10
2022-09-01T04:02:12.970Z,61.30
2022-09-01T04:03:12.919Z,61.30
2022-09-01T04:04:13.566Z,61.40
2022-09-01T04:05:13.445Z,60.90
2022-09-01T04:06:13.397Z,61.50
2022-09-01T04:07:15.580Z,61.70
2022-09-01T04:08:13.715Z,61.60
2022-09-01T04:09:14.335Z,61.60
2022-09-01T04:10:13.620Z,62.10
2022-09-01T04:11:13.762Z,62.00
2022-09-01T04:12:14.102Z,61.90
2022-09-01T04:13:12.960Z,62.40
2022-09-01T04:14:13.519Z,62.10
2022-09-01T04:15:13.474Z,61.60
2022-09-01T04:17:27.483Z,62.40
2022-09-01T04:18:14.300Z,62.70
2022-09-01T04:19:18.862Z,62.30
2022-09-01T04:20:18.782Z,62.30
2022-09-01T04:21:12.795Z,62.20
2022-09-01T04:22:13.633Z,62.00
2022-09-01T04:23:13.697Z,61.70
2022-09-01T04:24:13.865Z,61.90
2022-09-01T04:25:13.786Z,62.20
2022-09-01T04:26:13.790Z,62.10
2022-09-01T04:27:14.137Z,61.90
2022-09-01T04:28:13.332Z,61.70
2022-09-01T04:29:13.619Z,61.80
2022-09-01T04:30:13.550Z,61.70
2022-09-01T04:31:13.924Z,61.90
2022-09-01T04:32:13.399Z,61.90
2022-09-01T04:33:13.535Z,61.90
2022-09-01T04:34:13.542Z,61.90
2022-09-01T04:35:13.614Z,61.70
2022-09-01T04:36:14.143Z,61.60
2022-09-01T04:37:15.040Z,61.60
2022-09-01T04:38:13.642Z,61.70
2022-09-01T04:39:13.606Z,61.80
2022-09-01T04:40:13.514Z,61.50
2022-09-01T04:41:13.427Z,61.30
2022-09-01T04:42:13.818Z,61.40
2022-09-01T04:43:13.988Z,61.30
2022-09-01T04:44:13.516Z,61.40
2022-09-01T04:45:18.577Z,61.30
2022-09-01T04:46:14.102Z,61.70
2022-09-01T04:47:13.321Z,61.50
2022-09-01T04:48:13.706Z,60.90
2022-09-01T04:49:13.774Z,61.50
2022-09-01T04:50:14.708Z,61.40
2022-09-01T04:51:13.144Z,61.30
2022-09-01T04:52:13.124Z,61.60
2022-09-01T04:53:13.059Z,61.30
2022-09-01T04:54:13.135Z,60.90
2022-09-01T04:55:13.260Z,61.00
2022-09-01T04:56:13.346Z,61.20
2022-09-01T04:57:13.755Z,61.50
2022-09-01T04:58:13.690Z,61.50
2022-09-01T04:59:13.674Z,61.20
2022-09-01T05:00:13.475Z,61.80
2022-09-01T05:01:13.483Z,61.90
2022-09-01T05:02:13.879Z,61.80
2022-09-01T05:03:12.861Z,61.80
2022-09-01T05:04:13.754Z,61.90
2022-09-01T05:05:13.838Z,61.70
2022-09-01T05:06:15.334Z,62.10
2022-09-01T05:07:13.514Z,61.50
2022-09-01T05:08:13.690Z,61.90
2022-09-01T05:09:14.073Z,61.90
2022-09-01T05:10:13.089Z,61.60
2022-09-01T05:11:13.000Z,62.20
2022-09-01T05:12:15.694Z,62.30
2022-09-01T05:13:13.267Z,62.40
2022-09-01T05:14:13.265Z,62.50
2022-09-01T05:15:13.122Z,62.00
2022-09-01T05:16:13.224Z,62.00
2022-09-01T05:17:13.496Z,62.20
2022-09-01T05:18:13.525Z,62.00
2022-09-01T05:19:13.758Z,61.90
2022-09-01T05:20:13.886Z,61.20
2022-09-01T05:21:14.217Z,61.20
2022-09-01T05:22:13.101Z,61.70
2022-09-01T05:23:13.199Z,61.10
2022-09-01T05:24:13.285Z,61.10
2022-09-01T05:25:13.168Z,61.20
2022-09-01T05:26:13.714Z,61.50
2022-09-01T05:27:13.636Z,61.20
2022-09-01T05:28:13.787Z,60.90
2022-09-01T05:29:13.120Z,61.20
2022-09-01T05:30:13.013Z,61.20
2022-09-01T05:31:12.945Z,61.30
2022-09-01T05:32:13.217Z,61.80
2022-09-01T05:33:13.448Z,61.90
2022-09-01T05:34:14.049Z,61.50
2022-09-01T05:35:13.072Z,62.10
2022-09-01T05:36:13.355Z,61.40
2022-09-01T05:37:13.680Z,61.20
2022-09-01T05:38:13.904Z,60.90
2022-09-01T05:39:13.184Z,61.30
2022-09-01T05:40:13.091Z,61.20
2022-09-01T05:41:13.031Z,61.40
2022-09-01T05:42:13.204Z,60.90
2022-09-01T05:43:13.084Z,60.70
2022-09-01T05:44:13.021Z,61.00
2022-09-01T05:45:13.043Z,61.40
2022-09-01T05:46:12.841Z,61.50
2022-09-01T05:47:14.751Z,61.00
2022-09-01T05:48:12.955Z,61.10
2022-09-01T05:49:12.882Z,61.00
2022-09-01T05:50:14.802Z,60.90
2022-09-01T05:51:33.383Z,60.90
2022-09-01T05:52:13.026Z,60.80
2022-09-01T05:53:13.054Z,61.00
2022-09-01T05:54:13.349Z,60.80
2022-09-01T05:55:13.500Z,60.90
2022-09-01T05:56:13.767Z,60.70
2022-09-01T05:57:33.285Z,61.10
2022-09-01T05:58:13.672Z,60.90
2022-09-01T05:59:27.251Z,61.10
2022-09-01T06:00:13.650Z,60.90
2022-09-01T06:01:13.705Z,60.80
2022-09-01T06:02:14.023Z,60.30
2022-09-01T06:03:13.182Z,59.80
2022-09-01T06:04:13.485Z,60.00
2022-09-01T06:05:13.584Z,59.70
2022-09-01T06:06:13.492Z,60.30
2022-09-01T06:07:16.199Z,60.50
2022-09-01T06:08:13.692Z,60.20
2022-09-01T06:09:13.399Z,60.30
2022-09-01T06:10:13.644Z,60.00
2022-09-01T06:11:13.520Z,59.70
2022-09-01T06:12:13.749Z,59.10
2022-09-01T06:13:13.894Z,59.50
2022-09-01T06:14:13.632Z,59.80
2022-09-01T06:15:13.543Z,59.10
2022-09-01T06:16:13.455Z,58.90
2022-09-01T06:17:13.844Z,58.80
2022-09-01T06:18:13.701Z,58.40
2022-09-01T06:19:13.505Z,58.20
2022-09-01T06:20:13.707Z,58.20
2022-09-01T06:21:13.672Z,58.50
2022-09-01T06:22:13.783Z,58.20
2022-09-01T06:23:13.899Z,58.80
2022-09-01T06:24:12.801Z,58.90
2022-09-01T06:25:13.980Z,58.30
2022-09-01T06:26:13.170Z,58.50
2022-09-01T06:27:13.036Z,57.70
2022-09-01T06:28:13.095Z,57.60
2022-09-01T06:29:12.939Z,57.90
2022-09-01T06:30:13.109Z,57.60
2022-09-01T06:31:13.431Z,57.20
2022-09-01T06:32:13.862Z,57.40
2022-09-01T06:33:14.661Z,57.60
2022-09-01T06:34:13.668Z,57.00
2022-09-01T06:35:13.636Z,56.60
2022-09-01T06:36:13.568Z,56.80
2022-09-01T06:37:13.273Z,56.80
2022-09-01T06:38:13.275Z,56.50
2022-09-01T06:39:13.752Z,56.90
2022-09-01T06:40:13.781Z,57.30
2022-09-01T06:41:14.154Z,56.30
2022-09-01T06:42:13.576Z,56.20
2022-09-01T06:43:13.649Z,56.20
2022-09-01T06:44:14.628Z,56.30
2022-09-01T06:45:13.796Z,56.50
2022-09-01T06:46:13.706Z,56.80
2022-09-01T06:47:13.835Z,56.30
2022-09-01T06:48:13.733Z,55.90
2022-09-01T06:49:13.773Z,56.30
2022-09-01T06:50:13.865Z,55.80
2022-09-01T06:51:15.674Z,55.70
2022-09-01T06:52:13.622Z,56.00
2022-09-01T06:53:34.956Z,55.80
2022-09-01T06:54:14.722Z,55.30
2022-09-01T06:55:13.457Z,55.50
2022-09-01T06:56:13.733Z,55.40
2022-09-01T06:58:14.010Z,55.10
2022-09-01T06:59:13.812Z,54.90
2022-09-01T07:00:13.731Z,55.00
2022-09-01T07:01:14.384Z,55.30
2022-09-01T07:02:17.314Z,54.60
2022-09-01T07:03:12.887Z,54.10
2022-09-01T07:04:13.229Z,54.30
2022-09-01T07:05:59.817Z,54.20
2022-09-01T07:06:59.012Z,53.60
2022-09-01T07:08:13.413Z,53.60
2022-09-01T07:09:22.232Z,54.00
2022-09-01T07:10:21.009Z,53.70
2022-09-01T07:12:07.504Z,53.40
2022-09-01T07:12:26.498Z,53.30
2022-09-01T07:13:13.828Z,54.00
2022-09-01T07:14:15.936Z,52.90
2022-09-01T07:16:38.514Z,52.90
2022-09-01T07:17:24.211Z,52.30
2022-09-01T07:18:13.421Z,52.20
2022-09-01T07:19:13.453Z,51.80
2022-09-01T07:20:26.014Z,51.50
2022-09-01T07:21:38.863Z,51.60
2022-09-01T07:23:12.847Z,51.80
2022-09-01T07:24:13.934Z,51.80
2022-09-01T07:25:13.509Z,51.50
2022-09-01T07:26:24.590Z,51.40
2022-09-01T07:27:13.580Z,51.30
2022-09-01T07:29:13.314Z,51.70
2022-09-01T07:30:13.378Z,51.90
2022-09-01T07:32:43.466Z,51.40
2022-09-01T07:33:42.007Z,51.00
2022-09-01T07:34:39.338Z,50.80
2022-09-01T07:35:13.894Z,51.10
2022-09-01T07:36:29.553Z,51.30
2022-09-01T07:38:48.051Z,50.80
2022-09-01T07:42:55.573Z,51.30
2022-09-01T07:43:13.539Z,49.80
2022-09-01T07:44:13.465Z,50.00
2022-09-01T07:45:28.258Z,49.70
2022-09-01T07:46:37.202Z,49.00
2022-09-01T07:47:52.493Z,49.90
2022-09-01T07:48:35.991Z,49.50
2022-09-01T07:49:30.111Z,49.80
2022-09-01T07:50:37.505Z,49.30
2022-09-01T07:51:36.020Z,48.80
2022-09-01T07:52:14.770Z,49.00
2022-09-01T07:53:14.811Z,50.10
2022-09-01T07:54:14.142Z,49.10
2022-09-01T07:55:15.210Z,47.90
2022-09-01T07:56:13.160Z,47.70
2022-09-01T07:57:13.366Z,48.60
2022-09-01T07:58:13.511Z,49.00
2022-09-01T07:59:15.298Z,48.50
2022-09-01T08:00:13.483Z,48.10
2022-09-01T08:01:13.394Z,48.30
2022-09-01T08:02:13.481Z,48.50
2022-09-01T08:03:14.007Z,48.70
2022-09-01T08:04:13.410Z,48.60
2022-09-01T08:05:13.422Z,49.00
2022-09-01T08:06:13.496Z,48.90
2022-09-01T08:07:15.903Z,47.90
2022-09-01T08:08:19.623Z,47.30
2022-09-01T08:09:25.285Z,47.60
2022-09-01T08:10:13.252Z,47.40
2022-09-01T08:11:13.343Z,47.50
2022-09-01T08:12:13.405Z,47.70
2022-09-01T08:13:15.292Z,46.70
2022-09-01T08:14:13.548Z,46.40
2022-09-01T08:15:37.988Z,47.40
2022-09-01T08:16:17.783Z,46.80
2022-09-01T08:17:17.732Z,46.10
2022-09-01T08:18:14.682Z,46.10
2022-09-01T08:19:16.908Z,46.30
2022-09-01T08:20:14.069Z,46.10
2022-09-01T08:21:13.172Z,45.30
2022-09-01T08:22:13.179Z,45.60
2022-09-01T08:23:13.222Z,45.40
2022-09-01T08:24:13.445Z,45.60
2022-09-01T08:25:13.569Z,44.80
2022-09-01T08:26:13.602Z,44.10
2022-09-01T08:27:13.470Z,44.70
2022-09-01T08:28:13.052Z,45.30
2022-09-01T08:29:13.207Z,45.30
2022-09-01T08:30:13.363Z,44.70
2022-09-01T08:31:13.758Z,44.80
2022-09-01T08:32:13.605Z,44.30
2022-09-01T08:33:13.655Z,44.00
2022-09-01T08:34:13.717Z,44.60
2022-09-01T08:35:13.701Z,44.30
2022-09-01T08:36:13.663Z,44.80
2022-09-01T08:37:13.541Z,44.10
2022-09-01T08:38:13.491Z,43.70
2022-09-01T08:39:13.399Z,43.80
2022-09-01T08:40:13.501Z,44.50
2022-09-01T08:41:13.909Z,44.50
2022-09-01T08:42:13.220Z,43.90
2022-09-01T08:43:20.615Z,43.90
2022-09-01T08:44:13.781Z,43.30
2022-09-01T08:45:13.930Z,43.00
2022-09-01T08:46:13.245Z,43.40
2022-09-01T08:47:15.354Z,42.90
2022-09-01T08:49:09.767Z,43.00
2022-09-01T08:49:27.658Z,42.90
2022-09-01T08:50:13.107Z,43.30
2022-09-01T08:51:17.084Z,43.10
2022-09-01T08:52:13.059Z,43.00
2022-09-01T08:53:14.755Z,43.60
2022-09-01T08:54:14.300Z,43.90
2022-09-01T08:55:13.454Z,43.50
2022-09-01T08:56:13.629Z,42.20
2022-09-01T08:57:13.656Z,42.40
2022-09-01T08:58:13.892Z,42.30
2022-09-01T08:59:15.016Z,42.20
2022-09-01T09:00:13.695Z,42.60
2022-09-01T09:01:14.764Z,41.80
2022-09-01T09:02:14.224Z,41.40
2022-09-01T09:03:13.200Z,41.00
2022-09-01T09:04:13.080Z,41.30
2022-09-01T09:05:16.234Z,41.30
2022-09-01T09:06:13.517Z,41.50
2022-09-01T09:07:13.633Z,41.30
2022-09-01T09:08:18.824Z,41.20
2022-09-01T09:09:14.053Z,41.60
2022-09-01T09:10:13.041Z,41.60
2022-09-01T09:11:13.157Z,40.90
2022-09-01T09:12:15.169Z,40.40
2022-09-01T09:13:13.291Z,40.50
2022-09-01T09:14:13.525Z,40.40
2022-09-01T09:15:14.828Z,39.10
2022-09-01T09:16:13.801Z,39.40
2022-09-01T09:17:14.007Z,39.80
2022-09-01T09:18:34.516Z,37.80
2022-09-01T09:19:15.026Z,37.60
2022-09-01T09:20:12.933Z,36.80
2022-09-01T09:21:12.822Z,35.50
2022-09-01T09:22:13.943Z,34.00
2022-09-01T09:23:12.955Z,33.30
2022-09-01T09:24:18.140Z,33.60
2022-09-01T09:25:19.449Z,34.30
2022-09-01T09:26:16.608Z,34.60
2022-09-01T09:27:13.102Z,35.00
2022-09-01T09:28:12.997Z,35.50
2022-09-01T09:29:13.306Z,35.30
2022-09-01T09:30:13.155Z,34.80
2022-09-01T09:31:13.026Z,34.00
2022-09-01T09:32:35.492Z,33.70
2022-09-01T09:33:46.647Z,34.00
2022-09-01T09:34:13.886Z,33.30
2022-09-01T09:35:14.379Z,33.70
2022-09-01T09:36:13.322Z,35.00
2022-09-01T09:37:13.882Z,36.70
2022-09-01T09:38:13.922Z,36.90
2022-09-01T09:39:13.142Z,35.10
2022-09-01T09:40:14.744Z,34.10
2022-09-01T09:41:18.355Z,33.40
2022-09-01T09:42:15.224Z,34.20
2022-09-01T09:43:14.014Z,34.20
2022-09-01T09:44:13.437Z,34.40
2022-09-01T09:45:13.246Z,35.00
2022-09-01T09:46:24.649Z,34.30
2022-09-01T09:47:40.374Z,34.80
2022-09-01T09:48:13.243Z,33.90
2022-09-01T09:49:14.700Z,32.60
2022-09-01T09:50:15.668Z,32.30
2022-09-01T09:51:13.846Z,33.50
2022-09-01T09:52:16.505Z,33.80
2022-09-01T09:53:13.659Z,33.00
2022-09-01T09:54:15.614Z,35.10
2022-09-01T09:55:13.716Z,35.00
2022-09-01T09:56:13.558Z,34.90
2022-09-01T09:57:13.814Z,34.20
2022-09-01T09:58:14.323Z,34.40
2022-09-01T09:59:14.809Z,34.90
2022-09-01T10:00:13.993Z,35.50
2022-09-01T10:01:12.867Z,34.30
2022-09-01T10:02:15.684Z,33.90
2022-09-01T10:03:14.523Z,33.90
2022-09-01T10:04:13.716Z,34.30
2022-09-01T10:05:13.968Z,34.20
2022-09-01T10:06:12.891Z,33.30
2022-09-01T10:07:13.010Z,34.00
2022-09-01T10:08:14.717Z,33.70
2022-09-01T10:09:16.015Z,33.10
2022-09-01T10:10:12.956Z,33.10
2022-09-01T10:11:13.205Z,33.20
2022-09-01T10:12:14.643Z,33.60
2022-09-01T10:13:14.002Z,33.00
2022-09-01T10:14:23.580Z,30.90
2022-09-01T10:15:14.049Z,30.40
2022-09-01T10:16:14.358Z,30.30
2022-09-01T10:17:15.923Z,30.30
2022-09-01T10:18:20.398Z,30.80
2022-09-01T10:19:13.131Z,31.10
2022-09-01T10:20:13.243Z,30.70
2022-09-01T10:21:14.117Z,30.10
2022-09-01T10:22:15.164Z,30.10
2022-09-01T10:23:17.864Z,30.10
2022-09-01T10:24:20.401Z,29.20
2022-09-01T10:25:14.407Z,28.50
2022-09-01T10:26:14.501Z,28.60
2022-09-01T10:27:15.387Z,29.50
2022-09-01T10:28:20.686Z,30.80
2022-09-01T10:29:15.689Z,32.00
2022-09-01T10:30:14.125Z,32.00
2022-09-01T10:31:16.585Z,31.70
2022-09-01T10:32:30.585Z,31.00
2022-09-01T10:33:19.918Z,30.90
2022-09-01T10:34:13.504Z,30.70
2022-09-01T10:35:18.377Z,31.30
2022-09-01T10:36:15.022Z,31.30
2022-09-01T10:37:16.343Z,30.80
2022-09-01T10:38:15.440Z,31.50
2022-09-01T10:39:13.487Z,33.60
2022-09-01T10:40:13.487Z,32.30
2022-09-01T10:41:18.096Z,30.60
2022-09-01T10:42:19.573Z,30.50
2022-09-01T10:43:17.734Z,31.30
2022-09-01T10:44:13.640Z,30.90
2022-09-01T10:45:17.605Z,31.30
2022-09-01T10:46:16.263Z,31.30
2022-09-01T10:47:16.740Z,30.90
2022-09-01T10:48:13.739Z,33.00
2022-09-01T10:49:17.760Z,34.10
2022-09-01T10:50:18.717Z,33.40
2022-09-01T10:51:18.687Z,33.20
2022-09-01T10:52:16.272Z,31.30
2022-09-01T10:53:17.167Z,31.30
2022-09-01T10:54:13.260Z,30.90
2022-09-01T10:55:13.219Z,30.50
2022-09-01T10:56:23.441Z,31.10
2022-09-01T10:57:14.843Z,30.90
2022-09-01T10:59:35.768Z,30.30
2022-09-01T11:00:34.874Z,31.60
2022-09-01T11:01:24.894Z,30.60
2022-09-01T11:02:29.492Z,29.30
2022-09-01T11:03:31.586Z,29.00
2022-09-01T11:04:15.557Z,29.80
2022-09-01T11:05:17.187Z,30.50
2022-09-01T11:06:13.702Z,32.50
2022-09-01T11:07:44.313Z,33.10
2022-09-01T11:08:15.994Z,33.80
2022-09-01T11:09:15.227Z,33.60
2022-09-01T11:10:31.434Z,30.70
2022-09-01T11:11:18.972Z,30.00
2022-09-01T11:12:14.362Z,29.00
2022-09-01T11:13:15.388Z,28.20
2022-09-01T11:14:18.386Z,27.80
2022-09-01T11:15:18.188Z,28.90
2022-09-01T11:16:45.843Z,29.30
2022-09-01T11:17:17.673Z,30.10
2022-09-01T11:18:17.488Z,30.00
2022-09-01T11:19:17.854Z,30.90
2022-09-01T11:20:18.136Z,32.50
2022-09-01T11:21:17.600Z,33.50
2022-09-01T11:22:17.134Z,32.40
2022-09-01T11:23:14.962Z,31.40
2022-09-01T11:24:18.032Z,30.70
2022-09-01T11:25:17.456Z,30.60
2022-09-01T11:26:19.417Z,31.00
2022-09-01T11:27:21.701Z,30.40
2022-09-01T11:28:18.529Z,30.20
2022-09-01T11:29:18.956Z,28.80
2022-09-01T11:30:16.152Z,30.20
2022-09-01T11:31:16.377Z,29.30
2022-09-01T11:32:19.088Z,28.50
2022-09-01T11:33:18.716Z,29.20
2022-09-01T11:34:19.223Z,28.60
2022-09-01T11:35:18.665Z,29.20
2022-09-01T11:36:19.213Z,28.70
2022-09-01T11:37:16.999Z,28.20
2022-09-01T11:38:17.826Z,28.00
2022-09-01T11:39:16.931Z,28.10
2022-09-01T11:40:25.679Z,29.30
2022-09-01T11:41:19.407Z,29.60
2022-09-01T11:42:19.027Z,29.70
2022-09-01T11:43:17.034Z,29.20
2022-09-01T11:44:17.788Z,30.00
2022-09-01T11:45:20.674Z,31.10
2022-09-01T11:46:17.142Z,31.70
2022-09-01T11:47:17.420Z,31.00
2022-09-01T11:48:17.437Z,32.10
2022-09-01T11:49:18.202Z,31.60
2022-09-01T11:50:17.328Z,30.70
2022-09-01T11:51:15.956Z,29.90
2022-09-01T11:52:19.097Z,29.80
2022-09-01T11:53:18.316Z,29.20
2022-09-01T11:54:19.240Z,29.00
2022-09-01T11:55:18.711Z,29.90
2022-09-01T11:56:18.739Z,30.00
2022-09-01T11:57:18.054Z,29.90
2022-09-01T11:58:18.511Z,30.70
2022-09-01T11:59:19.475Z,29.20
2022-09-01T12:00:17.332Z,28.70
2022-09-01T12:01:19.203Z,27.30
2022-09-01T12:02:18.726Z,28.60
2022-09-01T12:03:19.712Z,27.50
2022-09-01T12:04:18.936Z,27.70
2022-09-01T12:05:17.611Z,28.00
2022-09-01T12:06:19.436Z,28.50
2022-09-01T12:07:19.565Z,29.20
2022-09-01T12:08:17.821Z,29.20
2022-09-01T12:09:20.286Z,29.00
2022-09-01T12:10:18.523Z,28.30
2022-09-01T12:11:19.263Z,29.20
2022-09-01T12:12:18.105Z,29.00
2022-09-01T12:13:17.235Z,28.30
2022-09-01T12:14:19.131Z,28.00
2022-09-01T12:15:19.974Z,26.80
2022-09-01T12:16:20.402Z,27.40
2022-09-01T12:17:19.424Z,28.80
2022-09-01T12:18:20.683Z,29.80
2022-09-01T12:19:18.164Z,29.10
2022-09-01T12:20:20.399Z,28.90
2022-09-01T12:21:19.762Z,28.10
2022-09-01T12:22:19.603Z,29.50
2022-09-01T12:23:19.636Z,28.10
2022-09-01T12:24:19.927Z,28.40
2022-09-01T12:25:19.802Z,27.80
2022-09-01T12:26:19.325Z,28.40
2022-09-01T12:27:20.856Z,27.20
2022-09-01T12:28:19.596Z,26.30
2022-09-01T12:29:19.728Z,25.60
2022-09-01T12:30:20.461Z,26.20
2022-09-01T12:31:20.319Z,25.80
2022-09-01T12:32:20.410Z,25.30
2022-09-01T12:33:24.706Z,25.50
2022-09-01T12:34:20.165Z,24.80
2022-09-01T12:35:19.102Z,26.30
2022-09-01T12:36:19.403Z,25.50
2022-09-01T12:37:19.447Z,24.50
2022-09-01T12:38:18.624Z,24.80
2022-09-01T12:39:19.749Z,25.80
2022-09-01T12:40:20.549Z,25.80
2022-09-01T12:42:19.467Z,25.70
2022-09-01T12:43:19.848Z,26.70
2022-09-01T12:44:18.609Z,26.10
2022-09-01T12:45:19.678Z,26.80
2022-09-01T12:46:20.483Z,26.60
2022-09-01T12:47:19.915Z,26.10
2022-09-01T12:48:20.945Z,25.70
2022-09-01T12:49:18.712Z,25.80
2022-09-01T12:50:21.806Z,26.80
2022-09-01T12:51:19.358Z,28.10
2022-09-01T12:52:20.691Z,27.20
2022-09-01T12:53:20.400Z,27.30
2022-09-01T12:54:21.279Z,27.10
2022-09-01T12:55:47.803Z,27.40
2022-09-01T12:56:17.056Z,26.00
2022-09-01T12:57:18.721Z,25.00
2022-09-01T12:58:19.422Z,26.20
2022-09-01T12:59:24.660Z,27.40
2022-09-01T13:00:19.293Z,27.30
2022-09-01T13:01:19.650Z,26.90
2022-09-01T13:02:19.757Z,27.20
2022-09-01T13:03:19.420Z,27.30
2022-09-01T13:04:20.301Z,27.20
2022-09-01T13:05:17.581Z,27.20